sensor_id;sensor_type;location;lat;lon;timestamp;P1;durP1;ratioP1;P2;durP2;ratioP2
38162;SDS011;23977;53.078;18.248;2023-06-14T00:02:05;8.05;;;4.60;;
38162;SDS011;23977;53.078;18.248;2023-06-14T00:04:34;6.97;;;4.60;;
38162;SDS011;23977;53.078;18.248;2023-06-14T00:07:00;6.35;;;4.47;;
38162;SDS011;23977;53.078;18.248;2023-06-14T00:09:26;6.85;;;4.50;;
38162;SDS011;23977;53.078;18.248;2023-06-14T00:11:51;7.40;;;4.70;;
38162;SDS011;23977;53.078;18.248;2023-06-14T00:14:17;6.78;;;4.57;;
38162;SDS011;23977;53.078;18.248;2023-06-14T00:16:43;7.40;;;4.90;;
38162;SDS011;23977;53.078;18.248;2023-06-14T00:19:09;6.85;;;4.50;;
38162;SDS011;23977;53.078;18.248;2023-06-14T00:21:37;5.78;;;4.13;;
38162;SDS011;23977;53.078;18.248;2023-06-14T00:24:03;6.43;;;4.47;;
38162;SDS011;23977;53.078;18.248;2023-06-14T00:26:29;6.22;;;4.78;;
38162;SDS011;23977;53.078;18.248;2023-06-14T00:28:55;7.43;;;4.80;;
38162;SDS011;23977;53.078;18.248;2023-06-14T00:31:25;8.48;;;4.80;;
38162;SDS011;23977;53.078;18.248;2023-06-14T00:33:50;5.95;;;4.55;;
38162;SDS011;23977;53.078;18.248;2023-06-14T00:36:16;6.30;;;4.65;;
38162;SDS011;23977;53.078;18.248;2023-06-14T00:38:41;8.13;;;4.63;;
38162;SDS011;23977;53.078;18.248;2023-06-14T00:41:07;7.38;;;4.60;;
38162;SDS011;23977;53.078;18.248;2023-06-14T00:43:33;7.38;;;4.68;;
38162;SDS011;23977;53.078;18.248;2023-06-14T00:46:00;7.45;;;4.47;;
38162;SDS011;23977;53.078;18.248;2023-06-14T00:48:28;7.68;;;4.97;;
38162;SDS011;23977;53.078;18.248;2023-06-14T00:50:56;6.82;;;4.85;;
38162;SDS011;23977;53.078;18.248;2023-06-14T00:53:23;7.25;;;5.18;;
38162;SDS011;23977;53.078;18.248;2023-06-14T00:55:50;6.97;;;4.90;;
38162;SDS011;23977;53.078;18.248;2023-06-14T00:58:16;6.35;;;5.15;;
38162;SDS011;23977;53.078;18.248;2023-06-14T01:00:42;8.57;;;5.40;;
38162;SDS011;23977;53.078;18.248;2023-06-14T01:03:08;8.90;;;5.90;;
38162;SDS011;23977;53.078;18.248;2023-06-14T01:05:38;11.10;;;5.50;;
38162;SDS011;23977;53.078;18.248;2023-06-14T01:08:24;7.43;;;5.78;;
38162;SDS011;23977;53.078;18.248;2023-06-14T01:11:18;8.40;;;5.82;;
38162;SDS011;23977;53.078;18.248;2023-06-14T01:13:51;11.38;;;6.40;;
38162;SDS011;23977;53.078;18.248;2023-06-14T01:16:19;8.18;;;5.90;;
38162;SDS011;23977;53.078;18.248;2023-06-14T01:18:45;9.50;;;6.13;;
38162;SDS011;23977;53.078;18.248;2023-06-14T01:21:23;7.40;;;5.95;;
38162;SDS011;23977;53.078;18.248;2023-06-14T01:23:49;10.93;;;6.30;;
38162;SDS011;23977;53.078;18.248;2023-06-14T01:26:20;8.40;;;6.43;;
38162;SDS011;23977;53.078;18.248;2023-06-14T01:28:48;9.85;;;6.82;;
38162;SDS011;23977;53.078;18.248;2023-06-14T01:31:17;10.60;;;7.47;;
38162;SDS011;23977;53.078;18.248;2023-06-14T01:33:47;9.02;;;6.80;;
38162;SDS011;23977;53.078;18.248;2023-06-14T01:36:18;11.25;;;7.00;;
38162;SDS011;23977;53.078;18.248;2023-06-14T01:38:45;7.82;;;6.43;;
38162;SDS011;23977;53.078;18.248;2023-06-14T01:41:14;10.80;;;7.05;;
38162;SDS011;23977;53.078;18.248;2023-06-14T01:43:40;8.27;;;6.60;;
38162;SDS011;23977;53.078;18.248;2023-06-14T01:46:08;7.68;;;6.25;;
38162;SDS011;23977;53.078;18.248;2023-06-14T01:48:34;10.00;;;6.78;;
38162;SDS011;23977;53.078;18.248;2023-06-14T01:51:00;8.50;;;6.57;;
38162;SDS011;23977;53.078;18.248;2023-06-14T01:53:25;9.45;;;6.85;;
38162;SDS011;23977;53.078;18.248;2023-06-14T01:55:51;11.30;;;7.80;;
38162;SDS011;23977;53.078;18.248;2023-06-14T01:58:19;8.15;;;6.57;;
38162;SDS011;23977;53.078;18.248;2023-06-14T02:00:46;8.13;;;7.20;;
38162;SDS011;23977;53.078;18.248;2023-06-14T02:03:13;10.95;;;6.97;;
38162;SDS011;23977;53.078;18.248;2023-06-14T02:05:40;9.85;;;7.22;;
38162;SDS011;23977;53.078;18.248;2023-06-14T02:08:07;10.25;;;7.60;;
38162;SDS011;23977;53.078;18.248;2023-06-14T02:10:33;10.32;;;7.88;;
38162;SDS011;23977;53.078;18.248;2023-06-14T02:12:59;9.75;;;7.85;;
38162;SDS011;23977;53.078;18.248;2023-06-14T02:15:25;11.10;;;8.00;;
38162;SDS011;23977;53.078;18.248;2023-06-14T02:18:00;9.50;;;7.80;;
38162;SDS011;23977;53.078;18.248;2023-06-14T02:20:27;10.98;;;8.50;;
38162;SDS011;23977;53.078;18.248;2023-06-14T02:22:53;9.38;;;7.63;;
38162;SDS011;23977;53.078;18.248;2023-06-14T02:25:19;9.10;;;7.97;;
38162;SDS011;23977;53.078;18.248;2023-06-14T02:27:45;9.45;;;7.90;;
38162;SDS011;23977;53.078;18.248;2023-06-14T02:30:12;10.70;;;7.70;;
38162;SDS011;23977;53.078;18.248;2023-06-14T02:32:39;9.88;;;7.50;;
38162;SDS011;23977;53.078;18.248;2023-06-14T02:35:06;13.13;;;8.40;;
38162;SDS011;23977;53.078;18.248;2023-06-14T02:37:33;12.00;;;8.23;;
38162;SDS011;23977;53.078;18.248;2023-06-14T02:39:59;10.52;;;7.80;;
38162;SDS011;23977;53.078;18.248;2023-06-14T02:42:25;12.45;;;8.27;;
38162;SDS011;23977;53.078;18.248;2023-06-14T02:44:51;11.90;;;7.63;;
38162;SDS011;23977;53.078;18.248;2023-06-14T02:47:17;11.75;;;7.68;;
38162;SDS011;23977;53.078;18.248;2023-06-14T02:49:44;12.82;;;8.32;;
38162;SDS011;23977;53.078;18.248;2023-06-14T02:52:11;11.13;;;7.68;;
38162;SDS011;23977;53.078;18.248;2023-06-14T02:54:38;11.57;;;8.18;;
38162;SDS011;23977;53.078;18.248;2023-06-14T02:57:03;12.63;;;8.23;;
38162;SDS011;23977;53.078;18.248;2023-06-14T02:59:29;11.18;;;8.02;;
38162;SDS011;23977;53.078;18.248;2023-06-14T03:01:55;10.25;;;7.68;;
38162;SDS011;23977;53.078;18.248;2023-06-14T03:04:21;10.95;;;7.88;;
38162;SDS011;23977;53.078;18.248;2023-06-14T03:06:46;10.52;;;7.43;;
38162;SDS011;23977;53.078;18.248;2023-06-14T03:09:15;10.02;;;7.25;;
38162;SDS011;23977;53.078;18.248;2023-06-14T03:11:42;11.27;;;7.43;;
38162;SDS011;23977;53.078;18.248;2023-06-14T03:14:08;12.10;;;7.60;;
38162;SDS011;23977;53.078;18.248;2023-06-14T03:16:36;10.48;;;7.53;;
38162;SDS011;23977;53.078;18.248;2023-06-14T03:19:03;11.73;;;7.28;;
38162;SDS011;23977;53.078;18.248;2023-06-14T03:21:28;10.90;;;7.72;;
38162;SDS011;23977;53.078;18.248;2023-06-14T03:23:54;9.68;;;6.97;;
38162;SDS011;23977;53.078;18.248;2023-06-14T03:26:20;11.43;;;7.38;;
38162;SDS011;23977;53.078;18.248;2023-06-14T03:28:48;9.15;;;7.20;;
38162;SDS011;23977;53.078;18.248;2023-06-14T03:31:19;12.20;;;7.53;;
38162;SDS011;23977;53.078;18.248;2023-06-14T03:33:45;10.57;;;7.13;;
38162;SDS011;23977;53.078;18.248;2023-06-14T03:36:14;10.30;;;6.95;;
38162;SDS011;23977;53.078;18.248;2023-06-14T03:38:40;11.68;;;6.93;;
38162;SDS011;23977;53.078;18.248;2023-06-14T03:41:05;11.07;;;6.72;;
38162;SDS011;23977;53.078;18.248;2023-06-14T03:43:33;10.38;;;7.05;;
38162;SDS011;23977;53.078;18.248;2023-06-14T03:45:59;10.88;;;6.68;;
38162;SDS011;23977;53.078;18.248;2023-06-14T03:48:25;12.23;;;6.80;;
38162;SDS011;23977;53.078;18.248;2023-06-14T03:50:51;13.05;;;6.80;;
38162;SDS011;23977;53.078;18.248;2023-06-14T03:53:17;10.93;;;6.85;;
38162;SDS011;23977;53.078;18.248;2023-06-14T03:55:45;10.50;;;7.03;;
38162;SDS011;23977;53.078;18.248;2023-06-14T03:58:11;10.00;;;6.70;;
38162;SDS011;23977;53.078;18.248;2023-06-14T04:00:41;10.27;;;7.30;;
38162;SDS011;23977;53.078;18.248;2023-06-14T04:03:09;12.95;;;7.05;;
38162;SDS011;23977;53.078;18.248;2023-06-14T04:05:35;11.27;;;7.20;;
38162;SDS011;23977;53.078;18.248;2023-06-14T04:08:01;10.90;;;7.20;;
38162;SDS011;23977;53.078;18.248;2023-06-14T04:10:27;10.70;;;7.50;;
38162;SDS011;23977;53.078;18.248;2023-06-14T04:12:53;11.90;;;7.50;;
38162;SDS011;23977;53.078;18.248;2023-06-14T04:15:19;12.10;;;7.22;;
38162;SDS011;23977;53.078;18.248;2023-06-14T04:17:44;10.05;;;7.55;;
38162;SDS011;23977;53.078;18.248;2023-06-14T04:20:13;11.13;;;7.38;;
38162;SDS011;23977;53.078;18.248;2023-06-14T04:22:39;10.18;;;7.57;;
38162;SDS011;23977;53.078;18.248;2023-06-14T04:25:07;9.85;;;7.68;;
38162;SDS011;23977;53.078;18.248;2023-06-14T04:27:33;10.57;;;7.50;;
38162;SDS011;23977;53.078;18.248;2023-06-14T04:30:03;13.30;;;8.38;;
38162;SDS011;23977;53.078;18.248;2023-06-14T04:32:30;11.52;;;7.93;;
38162;SDS011;23977;53.078;18.248;2023-06-14T04:35:03;11.30;;;8.05;;
38162;SDS011;23977;53.078;18.248;2023-06-14T04:37:34;11.23;;;8.05;;
38162;SDS011;23977;53.078;18.248;2023-06-14T04:40:00;13.90;;;8.32;;
38162;SDS011;23977;53.078;18.248;2023-06-14T04:42:40;11.02;;;7.50;;
38162;SDS011;23977;53.078;18.248;2023-06-14T04:45:10;10.45;;;7.53;;
38162;SDS011;23977;53.078;18.248;2023-06-14T04:47:39;12.00;;;7.45;;
38162;SDS011;23977;53.078;18.248;2023-06-14T04:50:08;13.00;;;8.20;;
38162;SDS011;23977;53.078;18.248;2023-06-14T04:52:43;10.27;;;7.45;;
38162;SDS011;23977;53.078;18.248;2023-06-14T04:55:09;11.70;;;7.22;;
38162;SDS011;23977;53.078;18.248;2023-06-14T04:57:35;9.88;;;6.65;;
38162;SDS011;23977;53.078;18.248;2023-06-14T05:00:08;11.13;;;7.30;;
38162;SDS011;23977;53.078;18.248;2023-06-14T05:02:37;11.38;;;7.30;;
38162;SDS011;23977;53.078;18.248;2023-06-14T05:05:06;11.60;;;6.70;;
38162;SDS011;23977;53.078;18.248;2023-06-14T05:07:37;10.50;;;6.35;;
38162;SDS011;23977;53.078;18.248;2023-06-14T05:10:03;10.13;;;6.43;;
38162;SDS011;23977;53.078;18.248;2023-06-14T05:12:29;8.95;;;6.00;;
38162;SDS011;23977;53.078;18.248;2023-06-14T05:14:54;10.52;;;5.90;;
38162;SDS011;23977;53.078;18.248;2023-06-14T05:17:20;9.05;;;5.68;;
38162;SDS011;23977;53.078;18.248;2023-06-14T05:19:47;9.70;;;6.10;;
38162;SDS011;23977;53.078;18.248;2023-06-14T05:22:13;9.90;;;5.63;;
38162;SDS011;23977;53.078;18.248;2023-06-14T05:24:40;8.90;;;5.82;;
38162;SDS011;23977;53.078;18.248;2023-06-14T05:27:05;9.02;;;5.50;;
38162;SDS011;23977;53.078;18.248;2023-06-14T05:29:31;8.32;;;5.60;;
38162;SDS011;23977;53.078;18.248;2023-06-14T05:32:02;8.13;;;5.30;;
38162;SDS011;23977;53.078;18.248;2023-06-14T05:34:28;9.85;;;5.60;;
38162;SDS011;23977;53.078;18.248;2023-06-14T05:36:53;9.23;;;5.38;;
38162;SDS011;23977;53.078;18.248;2023-06-14T05:39:21;9.20;;;5.82;;
38162;SDS011;23977;53.078;18.248;2023-06-14T05:41:46;9.10;;;5.60;;
38162;SDS011;23977;53.078;18.248;2023-06-14T05:44:12;11.63;;;6.20;;
38162;SDS011;23977;53.078;18.248;2023-06-14T05:46:38;9.95;;;5.72;;
38162;SDS011;23977;53.078;18.248;2023-06-14T05:49:06;9.93;;;5.63;;
38162;SDS011;23977;53.078;18.248;2023-06-14T05:51:31;7.50;;;5.57;;
38162;SDS011;23977;53.078;18.248;2023-06-14T05:53:57;10.10;;;5.82;;
38162;SDS011;23977;53.078;18.248;2023-06-14T05:56:23;9.65;;;5.80;;
38162;SDS011;23977;53.078;18.248;2023-06-14T05:58:49;8.88;;;6.47;;
38162;SDS011;23977;53.078;18.248;2023-06-14T06:01:14;12.80;;;6.07;;
38162;SDS011;23977;53.078;18.248;2023-06-14T06:03:41;10.35;;;6.05;;
38162;SDS011;23977;53.078;18.248;2023-06-14T06:06:11;10.25;;;6.22;;
38162;SDS011;23977;53.078;18.248;2023-06-14T06:08:37;12.45;;;6.55;;
38162;SDS011;23977;53.078;18.248;2023-06-14T06:11:03;11.90;;;6.68;;
38162;SDS011;23977;53.078;18.248;2023-06-14T06:13:29;10.18;;;5.80;;
38162;SDS011;23977;53.078;18.248;2023-06-14T06:15:54;10.48;;;6.40;;
38162;SDS011;23977;53.078;18.248;2023-06-14T06:18:21;13.02;;;6.38;;
38162;SDS011;23977;53.078;18.248;2023-06-14T06:20:47;7.70;;;5.43;;
38162;SDS011;23977;53.078;18.248;2023-06-14T06:23:13;9.40;;;6.38;;
38162;SDS011;23977;53.078;18.248;2023-06-14T06:25:38;10.25;;;5.60;;
38162;SDS011;23977;53.078;18.248;2023-06-14T06:28:04;8.52;;;6.22;;
38162;SDS011;23977;53.078;18.248;2023-06-14T06:30:29;8.75;;;5.72;;
38162;SDS011;23977;53.078;18.248;2023-06-14T06:32:55;9.75;;;6.00;;
38162;SDS011;23977;53.078;18.248;2023-06-14T06:35:21;10.63;;;6.30;;
38162;SDS011;23977;53.078;18.248;2023-06-14T06:38:07;10.23;;;6.38;;
38162;SDS011;23977;53.078;18.248;2023-06-14T06:40:39;10.70;;;6.70;;
38162;SDS011;23977;53.078;18.248;2023-06-14T06:43:04;8.57;;;6.07;;
38162;SDS011;23977;53.078;18.248;2023-06-14T06:45:30;12.60;;;6.20;;
38162;SDS011;23977;53.078;18.248;2023-06-14T06:48:05;10.80;;;6.35;;
38162;SDS011;23977;53.078;18.248;2023-06-14T06:50:47;9.30;;;6.65;;
38162;SDS011;23977;53.078;18.248;2023-06-14T06:53:31;9.43;;;7.00;;
38162;SDS011;23977;53.078;18.248;2023-06-14T06:56:02;8.02;;;5.93;;
38162;SDS011;23977;53.078;18.248;2023-06-14T06:58:29;9.02;;;5.88;;
38162;SDS011;23977;53.078;18.248;2023-06-14T07:00:55;9.07;;;6.45;;
38162;SDS011;23977;53.078;18.248;2023-06-14T07:03:21;10.57;;;7.63;;
38162;SDS011;23977;53.078;18.248;2023-06-14T07:05:49;12.15;;;7.22;;
38162;SDS011;23977;53.078;18.248;2023-06-14T07:08:17;12.15;;;7.75;;
38162;SDS011;23977;53.078;18.248;2023-06-14T07:10:46;13.02;;;7.50;;
38162;SDS011;23977;53.078;18.248;2023-06-14T07:13:12;10.75;;;6.50;;
38162;SDS011;23977;53.078;18.248;2023-06-14T07:15:39;10.80;;;7.38;;
38162;SDS011;23977;53.078;18.248;2023-06-14T07:18:05;10.45;;;7.10;;
38162;SDS011;23977;53.078;18.248;2023-06-14T07:20:32;16.02;;;8.32;;
38162;SDS011;23977;53.078;18.248;2023-06-14T07:23:00;14.13;;;7.22;;
38162;SDS011;23977;53.078;18.248;2023-06-14T07:25:27;13.70;;;7.55;;
38162;SDS011;23977;53.078;18.248;2023-06-14T07:27:53;12.18;;;7.03;;
38162;SDS011;23977;53.078;18.248;2023-06-14T07:30:20;10.13;;;7.00;;
38162;SDS011;23977;53.078;18.248;2023-06-14T07:32:46;11.05;;;6.40;;
38162;SDS011;23977;53.078;18.248;2023-06-14T07:35:12;17.20;;;6.60;;
38162;SDS011;23977;53.078;18.248;2023-06-14T07:37:38;11.93;;;6.57;;
38162;SDS011;23977;53.078;18.248;2023-06-14T07:40:05;9.50;;;6.75;;
38162;SDS011;23977;53.078;18.248;2023-06-14T07:42:33;10.75;;;5.97;;
38162;SDS011;23977;53.078;18.248;2023-06-14T07:45:03;11.80;;;6.07;;
38162;SDS011;23977;53.078;18.248;2023-06-14T07:47:29;12.32;;;6.05;;
38162;SDS011;23977;53.078;18.248;2023-06-14T07:49:58;9.90;;;5.60;;
38162;SDS011;23977;53.078;18.248;2023-06-14T07:52:25;11.00;;;6.28;;
38162;SDS011;23977;53.078;18.248;2023-06-14T07:54:59;11.52;;;5.32;;
38162;SDS011;23977;53.078;18.248;2023-06-14T07:57:27;9.52;;;5.25;;
38162;SDS011;23977;53.078;18.248;2023-06-14T07:59:59;11.52;;;5.35;;
38162;SDS011;23977;53.078;18.248;2023-06-14T08:02:35;9.57;;;5.20;;
38162;SDS011;23977;53.078;18.248;2023-06-14T08:05:05;9.18;;;5.00;;
38162;SDS011;23977;53.078;18.248;2023-06-14T08:07:46;11.98;;;5.70;;
38162;SDS011;23977;53.078;18.248;2023-06-14T08:10:51;10.95;;;5.43;;
38162;SDS011;23977;53.078;18.248;2023-06-14T08:13:20;11.50;;;8.10;;
38162;SDS011;23977;53.078;18.248;2023-06-14T08:15:48;25.15;;;18.27;;
38162;SDS011;23977;53.078;18.248;2023-06-14T08:18:14;34.58;;;23.95;;
38162;SDS011;23977;53.078;18.248;2023-06-14T08:20:40;16.95;;;11.43;;
38162;SDS011;23977;53.078;18.248;2023-06-14T08:23:06;12.65;;;7.70;;
38162;SDS011;23977;53.078;18.248;2023-06-14T08:25:33;10.10;;;5.57;;
38162;SDS011;23977;53.078;18.248;2023-06-14T08:27:59;7.93;;;4.65;;
38162;SDS011;23977;53.078;18.248;2023-06-14T08:30:25;12.82;;;5.57;;
38162;SDS011;23977;53.078;18.248;2023-06-14T08:32:50;9.32;;;5.13;;
38162;SDS011;23977;53.078;18.248;2023-06-14T08:35:17;8.43;;;4.55;;
38162;SDS011;23977;53.078;18.248;2023-06-14T08:37:49;8.40;;;4.47;;
38162;SDS011;23977;53.078;18.248;2023-06-14T08:40:21;9.82;;;4.28;;
38162;SDS011;23977;53.078;18.248;2023-06-14T08:42:52;13.43;;;4.60;;
38162;SDS011;23977;53.078;18.248;2023-06-14T08:45:23;8.13;;;4.13;;
38162;SDS011;23977;53.078;18.248;2023-06-14T08:47:52;5.70;;;3.63;;
38162;SDS011;23977;53.078;18.248;2023-06-14T08:50:27;7.93;;;4.45;;
38162;SDS011;23977;53.078;18.248;2023-06-14T08:52:57;7.00;;;4.05;;
38162;SDS011;23977;53.078;18.248;2023-06-14T08:55:27;10.25;;;4.47;;
38162;SDS011;23977;53.078;18.248;2023-06-14T08:57:55;9.88;;;5.28;;
38162;SDS011;23977;53.078;18.248;2023-06-14T09:00:25;8.88;;;5.30;;
38162;SDS011;23977;53.078;18.248;2023-06-14T09:02:53;9.63;;;5.13;;
38162;SDS011;23977;53.078;18.248;2023-06-14T09:05:25;9.65;;;4.80;;
38162;SDS011;23977;53.078;18.248;2023-06-14T09:07:51;8.52;;;4.72;;
38162;SDS011;23977;53.078;18.248;2023-06-14T09:10:20;9.05;;;4.65;;
38162;SDS011;23977;53.078;18.248;2023-06-14T09:13:23;9.73;;;4.70;;
38162;SDS011;23977;53.078;18.248;2023-06-14T09:15:49;7.05;;;4.20;;
38162;SDS011;23977;53.078;18.248;2023-06-14T09:18:20;7.28;;;4.53;;
38162;SDS011;23977;53.078;18.248;2023-06-14T09:20:46;8.05;;;4.43;;
38162;SDS011;23977;53.078;18.248;2023-06-14T09:23:13;9.98;;;4.75;;
38162;SDS011;23977;53.078;18.248;2023-06-14T09:25:42;7.88;;;4.90;;
38162;SDS011;23977;53.078;18.248;2023-06-14T09:28:09;9.63;;;4.50;;
38162;SDS011;23977;53.078;18.248;2023-06-14T09:30:38;8.30;;;4.50;;
38162;SDS011;23977;53.078;18.248;2023-06-14T09:33:04;10.15;;;5.03;;
38162;SDS011;23977;53.078;18.248;2023-06-14T09:35:31;9.25;;;4.55;;
38162;SDS011;23977;53.078;18.248;2023-06-14T09:37:57;7.82;;;4.10;;
38162;SDS011;23977;53.078;18.248;2023-06-14T09:40:23;7.75;;;4.50;;
38162;SDS011;23977;53.078;18.248;2023-06-14T09:42:49;7.80;;;4.00;;
38162;SDS011;23977;53.078;18.248;2023-06-14T09:45:17;7.35;;;3.95;;
38162;SDS011;23977;53.078;18.248;2023-06-14T09:47:48;6.93;;;3.67;;
38162;SDS011;23977;53.078;18.248;2023-06-14T09:50:14;11.85;;;4.22;;
38162;SDS011;23977;53.078;18.248;2023-06-14T09:52:40;7.18;;;3.92;;
38162;SDS011;23977;53.078;18.248;2023-06-14T09:55:13;5.82;;;3.65;;
38162;SDS011;23977;53.078;18.248;2023-06-14T09:57:43;6.70;;;4.13;;
38162;SDS011;23977;53.078;18.248;2023-06-14T10:00:12;8.48;;;4.15;;
38162;SDS011;23977;53.078;18.248;2023-06-14T10:02:40;6.53;;;3.75;;
38162;SDS011;23977;53.078;18.248;2023-06-14T10:08:54;7.97;;;3.97;;
38162;SDS011;23977;53.078;18.248;2023-06-14T10:15:07;8.98;;;4.30;;
38162;SDS011;23977;53.078;18.248;2023-06-14T10:23:45;9.98;;;4.75;;
38162;SDS011;23977;53.078;18.248;2023-06-14T10:26:19;10.02;;;4.25;;
38162;SDS011;23977;53.078;18.248;2023-06-14T10:29:00;9.25;;;4.22;;
38162;SDS011;23977;53.078;18.248;2023-06-14T10:31:53;6.35;;;4.10;;
38162;SDS011;23977;53.078;18.248;2023-06-14T10:34:22;10.73;;;4.47;;
38162;SDS011;23977;53.078;18.248;2023-06-14T10:39:45;9.25;;;4.70;;
38162;SDS011;23977;53.078;18.248;2023-06-14T10:42:12;9.48;;;4.80;;
38162;SDS011;23977;53.078;18.248;2023-06-14T10:44:45;9.27;;;4.85;;
38162;SDS011;23977;53.078;18.248;2023-06-14T10:47:33;8.38;;;4.90;;
38162;SDS011;23977;53.078;18.248;2023-06-14T10:50:09;11.63;;;4.60;;
38162;SDS011;23977;53.078;18.248;2023-06-14T10:52:41;10.50;;;4.70;;
38162;SDS011;23977;53.078;18.248;2023-06-14T10:55:15;9.80;;;4.75;;
38162;SDS011;23977;53.078;18.248;2023-06-14T11:00:11;8.60;;;4.57;;
38162;SDS011;23977;53.078;18.248;2023-06-14T11:02:46;8.20;;;4.35;;
38162;SDS011;23977;53.078;18.248;2023-06-14T11:05:20;9.25;;;4.50;;
38162;SDS011;23977;53.078;18.248;2023-06-14T11:10:43;7.28;;;3.88;;
38162;SDS011;23977;53.078;18.248;2023-06-14T11:13:13;8.90;;;3.75;;
38162;SDS011;23977;53.078;18.248;2023-06-14T11:15:43;7.15;;;4.03;;
38162;SDS011;23977;53.078;18.248;2023-06-14T11:18:10;8.25;;;4.40;;
38162;SDS011;23977;53.078;18.248;2023-06-14T11:20:41;6.93;;;3.95;;
38162;SDS011;23977;53.078;18.248;2023-06-14T11:23:07;7.22;;;4.25;;
38162;SDS011;23977;53.078;18.248;2023-06-14T11:25:33;7.72;;;4.20;;
38162;SDS011;23977;53.078;18.248;2023-06-14T11:27:59;6.63;;;3.95;;
38162;SDS011;23977;53.078;18.248;2023-06-14T11:30:25;17.50;;;4.88;;
38162;SDS011;23977;53.078;18.248;2023-06-14T11:32:52;8.77;;;3.50;;
38162;SDS011;23977;53.078;18.248;2023-06-14T11:35:21;6.13;;;2.70;;
38162;SDS011;23977;53.078;18.248;2023-06-14T11:37:52;7.38;;;2.75;;
38162;SDS011;23977;53.078;18.248;2023-06-14T11:40:19;6.88;;;2.10;;
38162;SDS011;23977;53.078;18.248;2023-06-14T11:42:45;5.78;;;2.30;;
38162;SDS011;23977;53.078;18.248;2023-06-14T11:45:11;4.53;;;2.22;;
38162;SDS011;23977;53.078;18.248;2023-06-14T11:47:39;6.40;;;2.53;;
38162;SDS011;23977;53.078;18.248;2023-06-14T11:50:08;6.30;;;2.80;;
38162;SDS011;23977;53.078;18.248;2023-06-14T11:52:36;8.10;;;3.40;;
38162;SDS011;23977;53.078;18.248;2023-06-14T11:55:02;6.97;;;2.97;;
38162;SDS011;23977;53.078;18.248;2023-06-14T11:57:35;7.43;;;3.90;;
38162;SDS011;23977;53.078;18.248;2023-06-14T12:00:06;7.03;;;3.60;;
38162;SDS011;23977;53.078;18.248;2023-06-14T12:02:54;6.65;;;4.03;;
38162;SDS011;23977;53.078;18.248;2023-06-14T12:05:25;8.32;;;3.35;;
38162;SDS011;23977;53.078;18.248;2023-06-14T12:10:43;5.55;;;3.17;;
38162;SDS011;23977;53.078;18.248;2023-06-14T12:13:09;6.35;;;3.22;;
38162;SDS011;23977;53.078;18.248;2023-06-14T12:15:36;9.43;;;3.58;;
38162;SDS011;23977;53.078;18.248;2023-06-14T12:18:05;6.40;;;3.60;;
38162;SDS011;23977;53.078;18.248;2023-06-14T12:20:33;7.95;;;3.20;;
38162;SDS011;23977;53.078;18.248;2023-06-14T12:23:02;5.15;;;3.25;;
38162;SDS011;23977;53.078;18.248;2023-06-14T12:25:30;5.65;;;3.10;;
38162;SDS011;23977;53.078;18.248;2023-06-14T12:27:57;5.93;;;2.83;;
38162;SDS011;23977;53.078;18.248;2023-06-14T12:30:36;4.13;;;2.90;;
38162;SDS011;23977;53.078;18.248;2023-06-14T12:33:06;5.63;;;2.58;;
38162;SDS011;23977;53.078;18.248;2023-06-14T12:35:32;5.47;;;3.00;;
38162;SDS011;23977;53.078;18.248;2023-06-14T12:37:58;6.25;;;3.03;;
38162;SDS011;23977;53.078;18.248;2023-06-14T12:40:24;6.10;;;3.00;;
38162;SDS011;23977;53.078;18.248;2023-06-14T12:42:55;8.52;;;3.50;;
38162;SDS011;23977;53.078;18.248;2023-06-14T12:45:22;6.60;;;3.28;;
38162;SDS011;23977;53.078;18.248;2023-06-14T12:47:50;9.10;;;3.90;;
38162;SDS011;23977;53.078;18.248;2023-06-14T12:50:19;6.03;;;3.80;;
38162;SDS011;23977;53.078;18.248;2023-06-14T12:52:45;13.38;;;4.18;;
38162;SDS011;23977;53.078;18.248;2023-06-14T12:55:10;7.20;;;4.72;;
38162;SDS011;23977;53.078;18.248;2023-06-14T12:57:36;9.00;;;4.57;;
38162;SDS011;23977;53.078;18.248;2023-06-14T13:00:09;15.40;;;5.47;;
38162;SDS011;23977;53.078;18.248;2023-06-14T13:02:36;8.18;;;4.57;;
38162;SDS011;23977;53.078;18.248;2023-06-14T13:05:02;12.57;;;4.63;;
38162;SDS011;23977;53.078;18.248;2023-06-14T13:07:30;11.30;;;4.60;;
38162;SDS011;23977;53.078;18.248;2023-06-14T13:09:55;10.88;;;4.63;;
38162;SDS011;23977;53.078;18.248;2023-06-14T13:12:21;10.18;;;4.53;;
38162;SDS011;23977;53.078;18.248;2023-06-14T13:14:47;7.10;;;4.05;;
38162;SDS011;23977;53.078;18.248;2023-06-14T13:17:13;6.45;;;3.95;;
38162;SDS011;23977;53.078;18.248;2023-06-14T13:19:38;7.30;;;3.85;;
38162;SDS011;23977;53.078;18.248;2023-06-14T13:22:04;8.88;;;4.10;;
38162;SDS011;23977;53.078;18.248;2023-06-14T13:24:30;8.02;;;4.10;;
38162;SDS011;23977;53.078;18.248;2023-06-14T13:26:56;9.60;;;5.00;;
38162;SDS011;23977;53.078;18.248;2023-06-14T13:29:23;9.43;;;4.65;;
38162;SDS011;23977;53.078;18.248;2023-06-14T13:31:49;8.73;;;4.05;;
38162;SDS011;23977;53.078;18.248;2023-06-14T13:34:15;6.97;;;3.65;;
38162;SDS011;23977;53.078;18.248;2023-06-14T13:36:40;5.82;;;3.05;;
38162;SDS011;23977;53.078;18.248;2023-06-14T13:39:06;4.95;;;2.90;;
38162;SDS011;23977;53.078;18.248;2023-06-14T13:41:32;8.45;;;3.50;;
38162;SDS011;23977;53.078;18.248;2023-06-14T13:44:00;6.20;;;3.38;;
38162;SDS011;23977;53.078;18.248;2023-06-14T13:46:26;6.45;;;3.33;;
38162;SDS011;23977;53.078;18.248;2023-06-14T13:48:52;6.53;;;3.08;;
38162;SDS011;23977;53.078;18.248;2023-06-14T13:51:18;8.98;;;3.28;;
38162;SDS011;23977;53.078;18.248;2023-06-14T13:53:48;4.10;;;2.83;;
38162;SDS011;23977;53.078;18.248;2023-06-14T13:56:15;5.28;;;2.72;;
38162;SDS011;23977;53.078;18.248;2023-06-14T13:58:40;6.28;;;2.50;;
38162;SDS011;23977;53.078;18.248;2023-06-14T14:01:07;4.05;;;2.15;;
38162;SDS011;23977;53.078;18.248;2023-06-14T14:03:33;5.18;;;2.17;;
38162;SDS011;23977;53.078;18.248;2023-06-14T14:06:01;4.68;;;2.20;;
38162;SDS011;23977;53.078;18.248;2023-06-14T14:08:27;3.45;;;2.10;;
38162;SDS011;23977;53.078;18.248;2023-06-14T14:10:54;4.65;;;2.10;;
38162;SDS011;23977;53.078;18.248;2023-06-14T14:13:19;4.22;;;2.22;;
38162;SDS011;23977;53.078;18.248;2023-06-14T14:15:46;3.70;;;2.20;;
38162;SDS011;23977;53.078;18.248;2023-06-14T14:18:12;3.17;;;1.90;;
38162;SDS011;23977;53.078;18.248;2023-06-14T14:20:38;5.03;;;2.55;;
38162;SDS011;23977;53.078;18.248;2023-06-14T14:23:04;5.20;;;2.40;;
38162;SDS011;23977;53.078;18.248;2023-06-14T14:25:30;4.85;;;2.75;;
38162;SDS011;23977;53.078;18.248;2023-06-14T14:27:56;5.18;;;2.53;;
38162;SDS011;23977;53.078;18.248;2023-06-14T14:30:22;6.05;;;2.35;;
38162;SDS011;23977;53.078;18.248;2023-06-14T14:32:49;5.28;;;3.00;;
38162;SDS011;23977;53.078;18.248;2023-06-14T14:35:16;7.35;;;3.53;;
38162;SDS011;23977;53.078;18.248;2023-06-14T14:37:43;7.38;;;3.20;;
38162;SDS011;23977;53.078;18.248;2023-06-14T14:40:09;5.10;;;2.53;;
38162;SDS011;23977;53.078;18.248;2023-06-14T14:42:35;4.72;;;2.80;;
38162;SDS011;23977;53.078;18.248;2023-06-14T14:45:02;4.28;;;2.58;;
38162;SDS011;23977;53.078;18.248;2023-06-14T14:47:28;4.85;;;2.80;;
38162;SDS011;23977;53.078;18.248;2023-06-14T14:49:55;6.25;;;3.10;;
38162;SDS011;23977;53.078;18.248;2023-06-14T14:52:20;7.78;;;3.50;;
38162;SDS011;23977;53.078;18.248;2023-06-14T14:54:46;5.40;;;3.17;;
38162;SDS011;23977;53.078;18.248;2023-06-14T14:57:12;5.63;;;3.30;;
38162;SDS011;23977;53.078;18.248;2023-06-14T14:59:37;5.20;;;3.30;;